Time;durP1;ratioP1;P1;durP2;ratioP2;P2;SDS_P1;SDS_P2;PMS_P1;PMS_P2;Temp;Humidity;BMP_temperature;BMP_pressure;BME280_temperature;BME280_humidity;BME280_pressure;Samples;Min_cycle;Max_cycle;Signal;HPM_P1;HPM_P2
2023/10/17 00:01:18;;;;;;;0.90;0.40;;;7.90;99.90;;;;;;5136111;27;20426;-50
2023/10/17 00:03:46;;;;;;;0.90;0.40;;;7.90;99.90;;;;;;5136501;27;20414;-52
2023/10/17 00:06:16;;;;;;;1.25;0.40;;;7.80;99.90;;;;;;5136058;27;20434;-54
2023/10/17 00:08:50;;;;;;;0.60;0.30;;;7.70;99.90;;;;;;5136513;27;20483;-54
2023/10/17 00:11:17;;;;;;;0.80;0.50;;;7.60;1.00;;;;;;5136096;27;20418;-53
2023/10/17 00:13:59;;;;;;;0.70;0.40;;;7.60;1.00;;;;;;5136433;27;20717;-57
2023/10/17 00:16:29;;;;;;;0.90;0.40;;;7.60;1.00;;;;;;5136474;27;20425;-51
2023/10/17 00:18:56;;;;;;;1.63;0.50;;;7.60;1.00;;;;;;5136376;27;20463;-52
2023/10/17 00:21:23;;;;;;;0.70;0.40;;;7.50;1.00;;;;;;5135880;27;20422;-53
2023/10/17 00:23:51;;;;;;;0.80;0.40;;;7.50;1.00;;;;;;5136206;27;20702;-53
2023/10/17 00:26:19;;;;;;;0.70;0.40;;;7.60;1.00;;;;;;5136198;27;20422;-54
2023/10/17 00:28:48;;;;;;;1.30;0.50;;;7.60;1.00;;;;;;5136021;27;20467;-53
2023/10/17 00:31:16;;;;;;;0.80;0.40;;;7.60;1.00;;;;;;5135902;27;20426;-54
2023/10/17 00:33:48;;;;;;;1.50;0.40;;;7.60;1.00;;;;;;5135319;27;20827;-55
2023/10/17 00:36:16;;;;;;;0.75;0.40;;;7.60;1.00;;;;;;5135942;27;20450;-51
2023/10/17 00:38:45;;;;;;;0.80;0.50;;;7.70;1.00;;;;;;5135690;27;20760;-53
2023/10/17 00:41:19;;;;;;;0.80;0.50;;;7.70;1.00;;;;;;5136142;27;20418;-54
2023/10/17 00:43:46;;;;;;;0.60;0.38;;;7.60;1.00;;;;;;5135060;27;20446;-51
2023/10/17 00:46:13;;;;;;;1.10;0.50;;;7.60;1.00;;;;;;5135713;27;20430;-52
2023/10/17 00:48:40;;;;;;;0.65;0.43;;;7.50;1.00;;;;;;5135405;27;20460;-50
2023/10/17 00:51:09;;;;;;;0.70;0.40;;;7.50;1.00;;;;;;5135087;27;20483;-48
2023/10/17 00:53:39;;;;;;;0.80;0.50;;;7.50;1.00;;;;;;5135898;27;20422;-55
2023/10/17 00:56:07;;;;;;;0.85;0.40;;;7.50;1.00;;;;;;5135520;27;20449;-51
2023/10/17 00:58:35;;;;;;;0.90;0.40;;;7.50;1.00;;;;;;5135868;27;20845;-50
2023/10/17 01:01:14;;;;;;;1.00;0.40;;;7.50;1.00;;;;;;5135291;27;20445;-50
2023/10/17 01:03:43;;;;;;;0.90;0.50;;;7.50;1.00;;;;;;5135679;27;20414;-54
2023/10/17 01:06:35;;;;;;;1.20;0.40;;;7.40;1.00;;;;;;5134482;27;20721;-53
2023/10/17 01:09:17;;;;;;;0.75;0.40;;;7.40;1.00;;;;;;5135275;27;20699;-53
2023/10/17 01:11:45;;;;;;;1.20;0.40;;;7.40;1.00;;;;;;5134597;27;20429;-49
2023/10/17 01:14:18;;;;;;;1.00;0.50;;;7.50;1.00;;;;;;5134032;27;20421;-55
2023/10/17 01:16:46;;;;;;;0.90;0.60;;;7.40;1.00;;;;;;5133425;27;20410;-54
2023/10/17 01:19:15;;;;;;;1.10;0.40;;;7.40;1.00;;;;;;5138632;27;20419;-50
2023/10/17 01:21:43;;;;;;;0.73;0.40;;;7.40;1.00;;;;;;5138125;27;20509;-53
2023/10/17 01:24:12;;;;;;;1.60;0.50;;;7.40;1.00;;;;;;5137801;27;20497;-54
2023/10/17 01:26:43;;;;;;;0.70;0.47;;;7.40;1.00;;;;;;5138127;27;20422;-54
2023/10/17 01:29:11;;;;;;;1.30;0.40;;;7.40;1.00;;;;;;5138376;27;20428;-53
2023/10/17 01:31:42;;;;;;;0.68;0.40;;;7.30;1.00;;;;;;5139342;27;20755;-55
2023/10/17 01:34:11;;;;;;;1.10;0.50;;;7.30;1.00;;;;;;5139105;27;20855;-52
2023/10/17 01:36:38;;;;;;;0.90;0.50;;;7.40;1.00;;;;;;5139014;27;20821;-55
2023/10/17 01:39:08;;;;;;;0.80;0.40;;;7.30;1.00;;;;;;5139631;27;20483;-54
2023/10/17 01:41:42;;;;;;;0.63;0.40;;;7.30;1.00;;;;;;5139001;27;20884;-55
2023/10/17 01:44:09;;;;;;;0.90;0.60;;;7.20;1.00;;;;;;5138774;27;20422;-55
2023/10/17 01:46:38;;;;;;;2.00;0.40;;;7.10;1.00;;;;;;5138924;27;20846;-54
2023/10/17 01:49:11;;;;;;;0.80;0.40;;;7.00;1.00;;;;;;5139101;27;20424;-49
2023/10/17 01:51:41;;;;;;;1.10;0.50;;;6.80;1.00;;;;;;5138711;27;20414;-50
2023/10/17 01:54:14;;;;;;;0.90;0.50;;;6.70;99.30;;;;;;5137678;27;20446;-51
2023/10/17 01:56:47;;;;;;;1.10;0.50;;;6.60;99.90;;;;;;5138854;27;20445;-51
2023/10/17 01:59:17;;;;;;;1.20;0.55;;;6.60;1.00;;;;;;5139203;27;20429;-50
2023/10/17 02:01:45;;;;;;;0.90;0.50;;;6.60;99.90;;;;;;5138466;27;20429;-50
2023/10/17 02:04:16;;;;;;;0.70;0.40;;;6.60;99.90;;;;;;5139063;27;20422;-51
2023/10/17 02:06:43;;;;;;;0.80;0.50;;;6.60;99.90;;;;;;5138605;27;20711;-51
2023/10/17 02:09:23;;;;;;;1.30;0.40;;;6.60;1.00;;;;;;5138555;27;20461;-50
2023/10/17 02:11:54;;;;;;;0.60;0.40;;;6.80;1.00;;;;;;5138842;27;20427;-47
2023/10/17 02:14:21;;;;;;;0.80;0.50;;;6.70;1.00;;;;;;5138382;27;20426;-52
2023/10/17 02:16:49;;;;;;;0.90;0.50;;;6.60;1.00;;;;;;5138512;27;20906;-53
2023/10/17 02:19:19;;;;;;;1.00;0.40;;;6.60;1.00;;;;;;5138388;27;20478;-52
2023/10/17 02:21:49;;;;;;;1.30;0.50;;;6.50;1.00;;;;;;5138739;27;20415;-51
2023/10/17 02:24:20;;;;;;;0.70;0.40;;;6.50;99.90;;;;;;5138154;27;20414;-52
2023/10/17 02:26:55;;;;;;;1.00;0.40;;;6.40;1.00;;;;;;5138368;27;20469;-53
2023/10/17 02:29:26;;;;;;;1.23;0.50;;;6.50;1.00;;;;;;5137603;27;20422;-53
2023/10/17 02:31:54;;;;;;;0.90;0.40;;;6.60;1.00;;;;;;5138297;27;20492;-47
2023/10/17 02:34:22;;;;;;;0.83;0.40;;;6.70;1.00;;;;;;5136799;27;20430;-52
2023/10/17 02:36:49;;;;;;;0.90;0.50;;;6.70;99.90;;;;;;5136061;27;20485;-51
2023/10/17 02:39:16;;;;;;;0.80;0.50;;;6.60;99.90;;;;;;5136927;27;20437;-52
2023/10/17 02:41:46;;;;;;;0.95;0.50;;;6.60;1.00;;;;;;5137805;27;20837;-49
2023/10/17 02:44:18;;;;;;;0.80;0.43;;;6.60;1.00;;;;;;5137979;27;20842;-50
2023/10/17 02:46:46;;;;;;;1.00;0.50;;;6.70;5.20;;;;;;5137274;27;20435;-52
2023/10/17 02:49:16;;;;;;;1.00;0.60;;;6.90;1.00;;;;;;5137579;27;20423;-49
2023/10/17 02:51:43;;;;;;;0.70;0.40;;;6.90;99.90;;;;;;5137421;27;20510;-50
2023/10/17 02:54:14;;;;;;;1.90;0.50;;;6.90;99.90;;;;;;5137415;27;20422;-50
2023/10/17 02:56:51;;;;;;;0.80;0.40;;;6.80;99.90;;;;;;5137853;27;20422;-52
2023/10/17 02:59:21;;;;;;;1.10;0.50;;;6.70;99.90;;;;;;5137578;27;20715;-52
2023/10/17 03:01:54;;;;;;;0.80;0.50;;;6.70;99.90;;;;;;5137533;27;20427;-50
2023/10/17 03:04:24;;;;;;;0.90;0.50;;;6.70;99.90;;;;;;5137523;27;20422;-50
2023/10/17 03:06:55;;;;;;;1.58;0.60;;;6.70;99.90;;;;;;5137178;27;20484;-49
2023/10/17 03:09:37;;;;;;;2.50;0.50;;;6.60;99.90;;;;;;5137125;27;20818;-50
2023/10/17 03:12:09;;;;;;;2.00;0.50;;;6.50;1.00;;;;;;5136727;27;20792;-49
2023/10/17 03:15:18;;;;;;;1.25;0.50;;;6.50;1.00;;;;;;5137657;27;20479;-49
2023/10/17 03:17:39;;;;;;;1.08;0.50;;;6.40;1.00;;;;;;5136089;27;20417;-47
2023/10/17 03:20:11;;;;;;;1.00;0.50;;;6.50;53.00;;;;;;5136868;27;20430;-51
2023/10/17 03:22:39;;;;;;;1.42;0.57;;;6.50;1.00;;;;;;5136216;27;20428;-51
2023/10/17 03:25:18;;;;;;;0.93;0.50;;;6.70;99.90;;;;;;5135254;27;20476;-51
2023/10/17 03:27:49;;;;;;;0.80;0.50;;;6.90;99.90;;;;;;5133333;27;20475;-48
2023/10/17 03:30:19;;;;;;;0.95;0.60;;;6.80;99.90;;;;;;5133998;27;20406;-48
2023/10/17 03:32:59;;;;;;;0.93;0.57;;;6.80;99.90;;;;;;5134651;27;20422;-48
2023/10/17 03:35:28;;;;;;;1.63;0.60;;;6.70;99.90;;;;;;5134799;27;20423;-51
2023/10/17 03:37:56;;;;;;;1.40;0.50;;;6.70;1.00;;;;;;5134813;27;20418;-47
2023/10/17 03:40:30;;;;;;;0.93;0.50;;;6.80;1.00;;;;;;5135068;27;20475;-52
2023/10/17 03:43:01;;;;;;;1.20;0.47;;;6.80;99.90;;;;;;5136303;27;20415;-52
2023/10/17 03:45:43;;;;;;;1.77;0.60;;;6.80;1.00;;;;;;5136054;27;20801;-45
2023/10/17 03:48:14;;;;;;;1.55;0.60;;;6.70;99.90;;;;;;5134993;27;20422;-47
2023/10/17 03:50:48;;;;;;;0.90;0.50;;;6.80;1.00;;;;;;5134492;27;20418;-47
2023/10/17 03:53:24;;;;;;;1.00;0.60;;;6.80;99.90;;;;;;5135533;27;20422;-47
2023/10/17 03:55:52;;;;;;;0.80;0.50;;;6.80;99.90;;;;;;5133673;27;20525;-46
2023/10/17 03:58:28;;;;;;;1.00;0.50;;;7.00;99.90;;;;;;5134053;27;20422;-50
2023/10/17 04:00:57;;;;;;;0.90;0.50;;;7.00;1.00;;;;;;5132587;27;20418;-53
2023/10/17 04:03:30;;;;;;;1.40;0.60;;;7.10;99.90;;;;;;5135186;27;20438;-53
2023/10/17 04:06:02;;;;;;;1.20;0.50;;;7.20;60.30;;;;;;5135108;27;20434;-49
2023/10/17 04:08:35;;;;;;;1.80;0.60;;;7.30;1.00;;;;;;5133501;27;20430;-54
2023/10/17 04:11:17;;;;;;;2.00;0.55;;;7.40;99.90;;;;;;5133409;27;20414;-50
2023/10/17 04:13:45;;;;;;;1.10;0.60;;;7.80;1.00;;;;;;5132362;27;20834;-49
2023/10/17 04:16:16;;;;;;;1.00;0.50;;;7.90;1.00;;;;;;5134717;27;20422;-50
2023/10/17 04:18:54;;;;;;;0.90;0.40;;;8.10;99.90;;;;;;5133495;27;20450;-50
2023/10/17 04:21:29;;;;;;;1.10;0.50;;;8.10;1.00;;;;;;5135050;27;20414;-52
2023/10/17 04:23:59;;;;;;;0.80;0.40;;;7.90;1.00;;;;;;5136110;27;20423;-52
2023/10/17 04:26:28;;;;;;;1.10;0.43;;;7.60;1.00;;;;;;5135409;27;20422;-51
2023/10/17 04:28:56;;;;;;;0.90;0.50;;;7.40;10.40;;;;;;5134299;27;20430;-51
2023/10/17 04:31:26;;;;;;;0.90;0.50;;;7.70;99.90;;;;;;5133724;27;20423;-52
2023/10/17 04:34:06;;;;;;;2.65;0.60;;;7.90;99.90;;;;;;5133394;27;20875;-52
2023/10/17 04:36:37;;;;;;;1.40;0.70;;;7.80;1.00;;;;;;5134118;27;20415;-51
2023/10/17 04:39:11;;;;;;;1.00;0.55;;;7.80;1.00;;;;;;5132866;27;20454;-51
2023/10/17 04:42:03;;;;;;;1.30;0.50;;;7.50;1.00;;;;;;5132643;27;20957;-50
2023/10/17 04:44:32;;;;;;;0.93;0.40;;;7.30;1.00;;;;;;5133320;27;20488;-49
2023/10/17 04:47:25;;;;;;;1.40;0.60;;;7.10;1.00;;;;;;5134083;27;20418;-54
2023/10/17 04:49:53;;;;;;;2.00;0.60;;;7.20;1.00;;;;;;5134405;27;20873;-54
2023/10/17 04:52:28;;;;;;;1.00;0.50;;;6.90;99.90;;;;;;5134046;27;20427;-49
2023/10/17 04:55:01;;;;;;;1.40;0.50;;;7.00;99.90;;;;;;5135065;27;20414;-50
2023/10/17 05:00:14;;;;;;;1.30;0.70;;;7.10;99.90;;;;;;5133653;27;20405;-52
2023/10/17 05:02:54;;;;;;;1.10;0.60;;;7.00;99.90;;;;;;5133246;27;20425;-55
2023/10/17 05:05:45;;;;;;;1.00;0.60;;;7.00;99.90;;;;;;5134623;27;20425;-54
2023/10/17 05:08:11;;;;;;;1.60;0.60;;;7.00;99.90;;;;;;5134757;27;20466;-53
2023/10/17 06:19:15;;;;;;;1.30;0.70;;;6.30;1.00;;;;;;5132379;27;20405;-50
2023/10/17 06:22:35;;;;;;;1.90;0.70;;;6.40;99.90;;;;;;5133640;27;20794;-49
2023/10/17 06:30:33;;;;;;;2.20;0.80;;;6.60;1.00;;;;;;5133890;27;20517;-50
2023/10/17 06:33:19;;;;;;;1.80;0.90;;;6.50;1.00;;;;;;5133995;27;20430;-51
2023/10/17 06:35:52;;;;;;;2.28;0.80;;;6.30;18.60;;;;;;5134956;27;20457;-47
2023/10/17 06:38:19;;;;;;;2.17;1.00;;;6.40;99.90;;;;;;5134063;27;20425;-49
2023/10/17 06:40:46;;;;;;;1.23;0.70;;;6.30;99.90;;;;;;5133852;27;20430;-51
2023/10/17 06:43:27;;;;;;;1.45;0.70;;;6.30;1.00;;;;;;5132866;27;20434;-47
2023/10/17 06:45:57;;;;;;;1.83;0.80;;;6.40;1.00;;;;;;5134829;27;20406;-46
2023/10/17 06:48:35;;;;;;;1.42;0.80;;;6.30;1.00;;;;;;5134449;27;20572;-52
2023/10/17 06:51:30;;;;;;;2.40;0.80;;;6.40;21.10;;;;;;5136019;27;20434;-52
2023/10/17 06:54:05;;;;;;;1.23;0.70;;;6.40;1.00;;;;;;5135850;27;20422;-47
2023/10/17 06:56:38;;;;;;;2.28;0.80;;;6.50;99.90;;;;;;5135232;27;20426;-48
2023/10/17 06:59:21;;;;;;;1.90;0.80;;;6.70;94.40;;;;;;5132864;27;20410;-49
2023/10/17 07:01:55;;;;;;;1.77;0.73;;;6.70;1.00;;;;;;5133696;27;20990;-53
2023/10/17 07:04:25;;;;;;;1.80;0.70;;;6.80;99.90;;;;;;5130855;27;20425;-48
2023/10/17 07:06:53;;;;;;;1.50;0.70;;;6.70;99.90;;;;;;5132266;27;21104;-48
2023/10/17 07:09:24;;;;;;;3.43;0.80;;;6.80;1.00;;;;;;5132708;27;20485;-51
2023/10/17 07:11:52;;;;;;;1.30;0.80;;;7.00;1.00;;;;;;5133146;27;20488;-50
2023/10/17 07:14:24;;;;;;;1.80;1.00;;;7.40;1.00;;;;;;5134425;27;20914;-49
2023/10/17 07:16:57;;;;;;;1.40;0.80;;;7.60;23.70;;;;;;5134281;27;20418;-52
2023/10/17 07:22:11;;;;;;;1.80;0.90;;;7.30;1.00;;;;;;5132907;27;20406;-50
2023/10/17 07:24:42;;;;;;;2.40;0.87;;;7.30;1.00;;;;;;5131584;27;20454;-52
2023/10/17 07:27:18;;;;;;;1.85;0.90;;;7.10;1.00;;;;;;5131687;27;20876;-51
2023/10/17 07:29:58;;;;;;;2.00;0.80;;;7.00;1.00;;;;;;5133487;27;20422;-54
2023/10/17 07:32:32;;;;;;;1.40;0.80;;;7.00;99.90;;;;;;5134035;27;20418;-53
2023/10/17 07:35:01;;;;;;;1.63;0.80;;;7.00;1.00;;;;;;5132450;27;20645;-53
2023/10/17 07:37:33;;;;;;;1.90;0.90;;;7.00;1.00;;;;;;5134105;27;20414;-54
2023/10/17 07:42:41;;;;;;;1.70;0.70;;;7.10;1.00;;;;;;5127598;27;20766;-54
2023/10/17 07:45:15;;;;;;;1.67;0.80;;;7.40;1.00;;;;;;5134162;27;20509;-52
2023/10/17 07:47:42;;;;;;;2.22;1.00;;;7.70;1.00;;;;;;5134291;27;20797;-53
2023/10/17 07:50:12;;;;;;;3.38;1.10;;;7.70;1.00;;;;;;5135256;27;20447;-51
2023/10/17 07:52:43;;;;;;;1.83;0.80;;;7.50;1.00;;;;;;5132293;27;20475;-51
2023/10/17 07:55:18;;;;;;;1.88;0.90;;;7.60;1.00;;;;;;5130658;27;20865;-52
2023/10/17 07:57:46;;;;;;;2.10;0.90;;;7.40;99.90;;;;;;5132920;27;20426;-50
2023/10/17 08:00:26;;;;;;;1.70;0.80;;;7.50;1.00;;;;;;5134265;27;20771;-50
2023/10/17 08:02:54;;;;;;;1.50;1.10;;;7.50;1.00;;;;;;5131896;27;20429;-53
2023/10/17 08:05:23;;;;;;;2.33;1.00;;;7.60;99.90;;;;;;5132516;27;20426;-51
2023/10/17 08:07:59;;;;;;;2.78;1.00;;;7.60;99.90;;;;;;5131937;27;20578;-51
2023/10/17 08:10:33;;;;;;;1.98;0.82;;;7.60;99.90;;;;;;5134187;27;20527;-48
2023/10/17 08:13:01;;;;;;;2.63;1.08;;;7.60;99.90;;;;;;5128820;27;20442;-52
2023/10/17 08:15:36;;;;;;;1.88;0.98;;;7.70;99.90;;;;;;5130691;27;20765;-50
2023/10/17 08:18:05;;;;;;;3.25;1.20;;;7.70;99.90;;;;;;5132276;27;20718;-48
2023/10/17 08:23:22;;;;;;;2.97;1.00;;;7.90;12.20;;;;;;5115883;27;20406;-50
2023/10/17 08:25:59;;;;;;;2.30;1.00;;;8.00;1.00;;;;;;5131489;27;20449;-51
2023/10/17 08:28:46;;;;;;;2.97;1.10;;;8.20;1.00;;;;;;5132345;27;20762;-47
2023/10/17 08:31:22;;;;;;;2.28;0.90;;;8.30;1.00;;;;;;5132788;27;20467;-52
2023/10/17 08:33:57;;;;;;;1.70;0.90;;;8.40;99.90;;;;;;5133369;27;20426;-50
2023/10/17 08:36:28;;;;;;;2.30;1.10;;;8.40;99.90;;;;;;5126142;27;20427;-49
2023/10/17 08:38:59;;;;;;;2.80;1.20;;;8.40;99.90;;;;;;5129896;27;20415;-53
2023/10/17 08:41:25;;;;;;;3.05;0.93;;;8.40;99.90;;;;;;5127042;27;20480;-53
2023/10/17 08:43:55;;;;;;;2.80;1.10;;;8.50;99.90;;;;;;5131278;27;20818;-51
2023/10/17 08:46:23;;;;;;;4.30;1.02;;;8.50;99.90;;;;;;5128665;27;20861;-51
2023/10/17 08:48:56;;;;;;;3.50;1.40;;;8.50;99.90;;;;;;5125063;27;20431;-50
2023/10/17 08:51:24;;;;;;;3.50;1.08;;;8.50;99.90;;;;;;5128612;27;20426;-50
2023/10/17 08:53:54;;;;;;;2.70;1.30;;;8.60;99.90;;;;;;5128401;27;20875;-48
2023/10/17 08:56:21;;;;;;;3.60;1.10;;;8.70;29.60;;;;;;5130861;27;20842;-48
2023/10/17 08:58:56;;;;;;;2.75;1.30;;;8.80;1.00;;;;;;5128809;27;20479;-50
2023/10/17 09:01:26;;;;;;;2.40;1.30;;;8.80;1.00;;;;;;5128074;27;20427;-52
2023/10/17 09:04:03;;;;;;;3.77;1.20;;;8.90;1.00;;;;;;5131367;27;20838;-50
2023/10/17 09:06:31;;;;;;;3.20;1.30;;;9.00;1.00;;;;;;5127461;27;20430;-53
2023/10/17 09:09:17;;;;;;;2.58;1.10;;;9.20;1.00;;;;;;5130076;27;20430;-51
2023/10/17 09:12:10;;;;;;;2.72;1.02;;;9.40;1.00;;;;;;5130301;27;20450;-52
2023/10/17 09:14:43;;;;;;;2.33;1.10;;;9.60;1.00;;;;;;5124757;27;20495;-53
2023/10/17 09:17:16;;;;;;;2.47;1.10;;;9.80;99.90;;;;;;5125810;27;20426;-49
2023/10/17 09:19:47;;;;;;;2.90;1.20;;;9.80;99.90;;;;;;5125752;28;20853;-48
2023/10/17 09:22:15;;;;;;;2.13;1.10;;;9.80;99.90;;;;;;5125347;27;20434;-58
2023/10/17 09:24:46;;;;;;;2.90;1.10;;;9.90;99.90;;;;;;5127068;27;20692;-58
2023/10/17 09:27:16;;;;;;;2.92;1.50;;;10.10;99.90;;;;;;5128453;27;20737;-58
2023/10/17 09:29:47;;;;;;;1.80;1.00;;;10.10;99.90;;;;;;5129256;27;20760;-58
2023/10/17 09:32:33;;;;;;;2.53;1.30;;;10.20;99.90;;;;;;5131485;27;20457;-57
2023/10/17 09:35:10;;;;;;;3.50;1.30;;;10.30;99.90;;;;;;5129459;27;20438;-58
2023/10/17 09:37:39;;;;;;;3.10;1.20;;;10.40;99.90;;;;;;5130522;27;20496;-57
2023/10/17 09:40:12;;;;;;;3.70;1.30;;;10.60;99.90;;;;;;5133342;27;20830;-57
2023/10/17 09:42:44;;;;;;;3.10;1.40;;;10.70;99.90;;;;;;5133827;27;20857;-57
2023/10/17 09:45:11;;;;;;;4.10;1.40;;;10.50;99.90;;;;;;5134392;27;20411;-58
2023/10/17 09:47:44;;;;;;;3.00;1.30;;;10.60;99.90;;;;;;5133086;27;20433;-59
2023/10/17 09:50:14;;;;;;;3.35;1.30;;;10.80;99.90;;;;;;5134153;27;20473;-58
2023/10/17 09:52:41;;;;;;;3.45;1.40;;;11.20;99.90;;;;;;5133682;27;20491;-59
2023/10/17 09:55:13;;;;;;;4.00;1.70;;;11.30;51.00;;;;;;5129149;27;20441;-58
2023/10/17 09:57:44;;;;;;;2.90;1.20;;;11.40;45.10;;;;;;5132518;27;21012;-54
2023/10/17 10:00:18;;;;;;;4.93;1.77;;;11.60;21.60;;;;;;5134022;27;20426;-57
2023/10/17 10:02:49;;;;;;;3.00;1.60;;;11.30;1.00;;;;;;5127112;27;20434;-57
2023/10/17 10:05:24;;;;;;;3.15;1.48;;;11.00;14.00;;;;;;5123114;27;20437;-59
2023/10/17 10:07:51;;;;;;;3.08;1.10;;;10.80;35.90;;;;;;5127907;27;20809;-58
2023/10/17 10:10:51;;;;;;;2.30;1.05;;;11.00;99.90;;;;;;5128052;27;20566;-58
2023/10/17 10:13:19;;;;;;;3.00;1.52;;;11.60;58.80;;;;;;5055096;28;20432;-57
2023/10/17 10:15:53;;;;;;;4.10;1.40;;;11.60;1.00;;;;;;5120472;27;20437;-57
2023/10/17 10:18:57;;;;;;;4.32;1.80;;;11.40;1.00;;;;;;5130965;27;20869;-57
2023/10/17 10:22:05;;;;;;;3.10;1.48;;;11.40;6.80;;;;;;5120396;27;20524;-58
2023/10/17 10:24:33;;;;;;;3.72;1.30;;;11.40;7.50;;;;;;5102513;27;20474;-57
2023/10/17 10:27:26;;;;;;;3.30;1.52;;;11.40;8.40;;;;;;5123878;27;20446;-58
2023/10/17 10:29:53;;;;;;;5.22;1.30;;;11.50;1.00;;;;;;5123378;27;20510;-58
2023/10/17 10:32:34;;;;;;;3.63;1.53;;;11.70;26.50;;;;;;5131554;27;20464;-58
2023/10/17 10:35:05;;;;;;;4.00;1.40;;;12.30;1.00;;;;;;5125626;27;21390;-57
2023/10/17 10:37:33;;;;;;;4.55;1.58;;;12.70;1.00;;;;;;5125548;27;20443;-58
2023/10/17 10:40:16;;;;;;;3.95;2.00;;;12.60;1.00;;;;;;5127298;27;20437;-58
2023/10/17 10:42:48;;;;;;;2.90;1.20;;;12.20;1.00;;;;;;5128587;27;20709;-57
2023/10/17 10:45:31;;;;;;;3.17;1.70;;;12.20;1.00;;;;;;5125346;27;20434;-58
2023/10/17 10:47:59;;;;;;;3.63;1.55;;;12.40;1.00;;;;;;5130676;27;20757;-58
2023/10/17 10:50:30;;;;;;;3.33;1.40;;;12.50;1.00;;;;;;5129070;27;20433;-58
2023/10/17 10:52:58;;;;;;;3.15;1.50;;;12.60;1.00;;;;;;5127497;27;20520;-58
2023/10/17 10:55:26;;;;;;;3.58;1.60;;;12.40;1.00;;;;;;5130345;27;20901;-58
2023/10/17 10:57:53;;;;;;;2.50;1.50;;;12.10;1.00;;;;;;5130486;27;20726;-58
2023/10/17 11:00:21;;;;;;;3.70;1.60;;;12.00;1.00;;;;;;5130812;27;20422;-58
2023/10/17 11:02:48;;;;;;;4.45;1.60;;;12.10;1.00;;;;;;5128770;27;20438;-58
2023/10/17 11:05:15;;;;;;;3.65;1.90;;;12.20;1.00;;;;;;5131045;27;20426;-59
2023/10/17 11:07:45;;;;;;;5.20;2.05;;;12.40;1.00;;;;;;5129184;27;20426;-57
2023/10/17 11:10:13;;;;;;;3.70;1.98;;;12.20;1.00;;;;;;5130839;27;20498;-59
2023/10/17 11:12:41;;;;;;;4.82;1.50;;;12.00;1.00;;;;;;5133332;27;20519;-57
2023/10/17 11:15:11;;;;;;;3.45;1.42;;;12.30;1.00;;;;;;5127202;27;20430;-58
2023/10/17 11:17:39;;;;;;;4.15;1.70;;;12.50;1.00;;;;;;5131640;27;20421;-59
2023/10/17 11:20:14;;;;;;;2.00;1.30;;;12.60;1.00;;;;;;5132119;27;20417;-59
2023/10/17 11:22:44;;;;;;;2.95;1.77;;;12.90;1.00;;;;;;5132495;27;20423;-58
2023/10/17 11:25:21;;;;;;;2.38;1.50;;;12.90;1.00;;;;;;5132257;27;20475;-59
2023/10/17 11:27:53;;;;;;;3.70;1.47;;;12.70;1.00;;;;;;5134933;27;20792;-58
2023/10/17 11:30:29;;;;;;;4.03;1.75;;;12.60;1.00;;;;;;5131546;27;20430;-58
2023/10/17 11:33:02;;;;;;;3.33;1.58;;;12.70;1.00;;;;;;5132483;27;20491;-59
2023/10/17 11:35:30;;;;;;;2.70;1.40;;;12.50;1.00;;;;;;5131780;27;20442;-59
2023/10/17 11:37:59;;;;;;;2.35;1.30;;;12.70;1.00;;;;;;5135223;27;20479;-58
2023/10/17 11:40:43;;;;;;;2.28;1.30;;;12.60;1.00;;;;;;5132434;27;21027;-58
2023/10/17 11:43:20;;;;;;;1.83;1.13;;;12.70;1.00;;;;;;5132734;27;20487;-58
2023/10/17 11:45:48;;;;;;;3.10;1.80;;;13.00;1.00;;;;;;5131822;27;20518;-59
2023/10/17 11:48:27;;;;;;;4.40;1.65;;;13.10;1.00;;;;;;5132780;27;20410;-59
2023/10/17 11:51:12;;;;;;;3.00;1.40;;;12.90;1.00;;;;;;5130932;27;20434;-58
2023/10/17 11:54:03;;;;;;;3.60;1.50;;;12.90;1.00;;;;;;5133138;27;20435;-58
2023/10/17 11:56:31;;;;;;;2.53;1.40;;;12.80;1.00;;;;;;5133910;27;20430;-58
2023/10/17 11:58:58;;;;;;;2.50;1.20;;;12.80;1.00;;;;;;5134021;27;20491;-59
2023/10/17 12:01:25;;;;;;;3.27;1.60;;;12.80;1.00;;;;;;5131698;27;20430;-59
2023/10/17 12:03:56;;;;;;;3.73;1.50;;;12.80;1.00;;;;;;5131640;27;20933;-57
2023/10/17 12:06:26;;;;;;;2.90;1.40;;;12.70;1.00;;;;;;5133716;27;20750;-58
2023/10/17 12:08:55;;;;;;;3.13;1.40;;;12.90;1.00;;;;;;5133025;27;20478;-58
2023/10/17 12:11:24;;;;;;;4.57;1.50;;;13.00;1.00;;;;;;5132123;27;20430;-58
2023/10/17 12:13:52;;;;;;;2.45;1.50;;;13.30;1.00;;;;;;5129616;27;20441;-58
2023/10/17 12:16:23;;;;;;;3.10;1.40;;;13.30;1.00;;;;;;5132237;27;20423;-58
2023/10/17 12:18:52;;;;;;;4.05;1.77;;;13.40;1.00;;;;;;5133198;27;20494;-54
2023/10/17 12:21:19;;;;;;;3.60;1.50;;;13.10;1.00;;;;;;5131721;27;20462;-56
2023/10/17 12:23:46;;;;;;;2.67;1.30;;;12.80;1.00;;;;;;5132333;27;20465;-55
2023/10/17 12:26:14;;;;;;;3.10;1.40;;;12.90;1.00;;;;;;5130736;27;20487;-53
2023/10/17 12:28:43;;;;;;;3.90;1.70;;;12.90;1.00;;;;;;5128891;27;20513;-71
2023/10/17 12:31:10;;;;;;;3.72;1.50;;;12.70;1.00;;;;;;5125429;27;20482;-51
2023/10/17 12:33:38;;;;;;;3.80;1.73;;;12.70;1.00;;;;;;5130098;27;20429;-52
2023/10/17 12:36:06;;;;;;;3.35;1.50;;;12.50;1.00;;;;;;5129341;27;20418;-53
2023/10/17 12:38:36;;;;;;;2.70;1.50;;;12.40;1.00;;;;;;5129639;27;20426;-53
2023/10/17 12:41:06;;;;;;;4.43;1.48;;;12.30;1.00;;;;;;5129609;27;20434;-54
2023/10/17 12:43:36;;;;;;;4.30;1.50;;;12.10;1.00;;;;;;5134366;27;20419;-50
2023/10/17 12:46:03;;;;;;;4.13;1.57;;;12.40;1.00;;;;;;5131368;27;20942;-54
2023/10/17 12:48:30;;;;;;;4.60;1.90;;;12.60;1.00;;;;;;5132541;27;20479;-54
2023/10/17 12:50:57;;;;;;;3.95;1.65;;;12.70;1.00;;;;;;5129392;27;20438;-55
2023/10/17 12:53:24;;;;;;;3.40;2.00;;;12.70;1.00;;;;;;5131585;27;20730;-54
2023/10/17 12:55:51;;;;;;;3.20;1.55;;;12.70;1.00;;;;;;5129994;27;20482;-54
2023/10/17 12:58:22;;;;;;;1.92;1.23;;;12.60;1.00;;;;;;5133589;27;20426;-56
2023/10/17 13:00:51;;;;;;;3.30;1.50;;;12.60;1.00;;;;;;5128961;27;20496;-53
2023/10/17 13:03:19;;;;;;;2.95;1.88;;;12.70;1.00;;;;;;5130347;27;20414;-54
2023/10/17 13:05:48;;;;;;;3.58;1.40;;;12.70;1.00;;;;;;5128811;27;20572;-54
2023/10/17 13:08:15;;;;;;;3.55;1.45;;;12.80;1.00;;;;;;5129866;27;20513;-55
2023/10/17 13:10:43;;;;;;;3.70;1.30;;;13.00;1.00;;;;;;5130749;27;20469;-53
2023/10/17 13:13:11;;;;;;;3.20;1.40;;;13.30;1.00;;;;;;5126655;27;20433;-55
2023/10/17 13:15:39;;;;;;;3.05;1.20;;;13.30;1.00;;;;;;5131362;27;20510;-55
2023/10/17 13:18:10;;;;;;;3.42;1.48;;;13.30;1.00;;;;;;5131409;27;20434;-55
2023/10/17 13:20:37;;;;;;;2.55;1.70;;;13.50;1.00;;;;;;5128845;27;20415;-52
2023/10/17 13:23:05;;;;;;;2.83;1.50;;;13.50;1.00;;;;;;5129634;27;20701;-55
2023/10/17 13:25:36;;;;;;;3.77;1.40;;;13.40;1.00;;;;;;5128571;27;20441;-54
2023/10/17 13:28:03;;;;;;;3.38;1.50;;;13.40;1.00;;;;;;5112149;28;20520;-53
2023/10/17 13:30:31;;;;;;;2.70;1.20;;;13.50;1.00;;;;;;5124379;27;20454;-55
2023/10/17 13:32:58;;;;;;;3.65;1.65;;;13.60;1.00;;;;;;5132566;27;20456;-51
2023/10/17 13:35:28;;;;;;;2.20;1.50;;;13.40;1.00;;;;;;5130837;27;20711;-53
2023/10/17 13:37:56;;;;;;;2.35;1.20;;;13.40;1.00;;;;;;5131315;27;20483;-53
2023/10/17 13:40:25;;;;;;;2.50;1.30;;;13.60;1.00;;;;;;5129275;27;20430;-53
2023/10/17 13:42:53;;;;;;;2.37;1.40;;;13.70;1.00;;;;;;5129930;27;20434;-52
2023/10/17 13:45:22;;;;;;;2.30;1.20;;;13.80;1.00;;;;;;5132349;27;20418;-53
2023/10/17 13:47:50;;;;;;;2.85;1.23;;;13.90;1.00;;;;;;5130101;27;20497;-55
2023/10/17 13:50:18;;;;;;;2.95;1.30;;;13.90;1.00;;;;;;5130504;27;20462;-53
2023/10/17 13:52:48;;;;;;;3.60;1.40;;;14.00;1.00;;;;;;5128008;27;20892;-54
2023/10/17 13:55:23;;;;;;;2.50;1.20;;;14.00;1.00;;;;;;5127524;27;20428;-55
2023/10/17 13:57:55;;;;;;;3.40;1.80;;;13.90;1.00;;;;;;5129007;27;20801;-55
2023/10/17 14:00:23;;;;;;;4.72;1.80;;;13.80;1.00;;;;;;5129757;27;20426;-53
2023/10/17 14:02:50;;;;;;;3.15;1.70;;;13.60;1.00;;;;;;5130008;27;20435;-51
2023/10/17 14:05:18;;;;;;;3.25;1.40;;;13.50;1.00;;;;;;5129245;28;20802;-54
2023/10/17 14:07:45;;;;;;;3.00;1.90;;;13.50;1.00;;;;;;5112298;28;20431;-56
2023/10/17 14:10:14;;;;;;;3.40;1.40;;;13.50;1.00;;;;;;5124662;28;20437;-55
2023/10/17 14:12:42;;;;;;;3.70;1.50;;;13.50;1.00;;;;;;5123119;27;20459;-55
2023/10/17 14:15:09;;;;;;;2.90;1.42;;;13.50;1.00;;;;;;5130741;27;20456;-55
2023/10/17 14:17:37;;;;;;;2.60;1.50;;;13.50;1.00;;;;;;5129706;27;20779;-53
2023/10/17 14:20:15;;;;;;;3.80;1.60;;;13.50;1.00;;;;;;5127960;27;20415;-54
2023/10/17 14:22:57;;;;;;;3.10;1.50;;;13.40;1.00;;;;;;5127707;27;20538;-55
2023/10/17 14:28:16;;;;;;;2.75;1.60;;;13.70;1.00;;;;;;5116124;27;20974;-51
2023/10/17 14:30:43;;;;;;;2.90;1.50;;;13.80;1.00;;;;;;5134140;27;20519;-55
2023/10/17 14:33:10;;;;;;;2.75;1.48;;;13.90;1.00;;;;;;5135872;27;20456;-54
2023/10/17 14:35:37;;;;;;;2.80;1.45;;;13.80;1.00;;;;;;5116379;27;20584;-55
2023/10/17 14:38:05;;;;;;;3.77;1.30;;;13.90;1.00;;;;;;5116979;27;20438;-54
2023/10/17 14:40:34;;;;;;;2.67;1.60;;;13.70;1.00;;;;;;5135830;27;20457;-49
2023/10/17 14:43:02;;;;;;;3.33;1.42;;;13.40;1.00;;;;;;5135060;27;20434;-51
2023/10/17 14:45:30;;;;;;;3.00;1.40;;;13.40;1.00;;;;;;5130474;27;20801;-53
2023/10/17 14:47:58;;;;;;;2.80;1.30;;;13.30;1.00;;;;;;5128327;27;20443;-51
2023/10/17 14:50:26;;;;;;;3.85;1.50;;;13.40;1.00;;;;;;5113516;28;20454;-53
2023/10/17 14:52:54;;;;;;;3.85;1.50;;;13.50;1.00;;;;;;5122660;27;20861;-55